»·PEaware :: N2858K L88-KSBP

N2858K :: L88-KSBP

FLIGHT INFORMATION

Flight Status: Arrived
Operator: Privately registered:
United States
More flights under this callsign
Pilot: Maurice D. (20732)
Aircraft: PIPER PA-28 CHEROKEE ARCHER
(PA28)
More flights by this aircraft type
Origin: L88 New Cuyama
United States
Destination: KSBP San Luis Co Regl
United States
More flights between these airports :: More routes between these airports
Route: WYNNR
File this flight plan on PilotEdge
Remarks: Performing CAT-2 checkride
Altitude:
(Current/Filed)
6,500ft
Speed:
(Current/Filed)
110kts
Departed: 14-Aug-19 08:50 PM
Arrived: 14-Aug-19 09:20 PM
Distance/Time
Traveled:
50nm/0:30
Distance/Time
To Go:
Arrived

Flight Plot

Page will automatically refresh every two minutes.


Map Options




Map Legend


Flown Route
Filed Route
Departure Airport
Arrival Airport
Navaid (VOR, NDB)
Fix

Horizontal Profiles

Position Reports

Time Latitude Longitude Heading Altitude Ground
Speed
14-Aug-19 20:35 34.942858 -119.690284 204 2156ft 0kts
14-Aug-19 20:36 34.942858 -119.690284 204 2156ft 0kts
14-Aug-19 20:37 34.942858 -119.690284 204 2156ft 0kts
14-Aug-19 20:38 34.942858 -119.690284 204 2156ft 0kts
14-Aug-19 20:39 34.942858 -119.690284 204 2156ft 0kts
14-Aug-19 20:40 34.942858 -119.690284 204 2156ft 0kts
14-Aug-19 20:41 34.942848 -119.690290 203 2156ft 0kts
14-Aug-19 20:42 34.942848 -119.690290 203 2156ft 0kts
14-Aug-19 20:43 34.942848 -119.690290 203 2156ft 0kts
14-Aug-19 20:44 34.942848 -119.690290 203 2156ft 0kts
14-Aug-19 20:45 34.942848 -119.690290 204 2156ft 0kts
14-Aug-19 20:46 34.942848 -119.690290 204 2156ft 0kts
14-Aug-19 20:47 34.942832 -119.690299 207 2156ft 0kts
14-Aug-19 20:48 34.942157 -119.690935 112 2153ft 17kts
14-Aug-19 20:49 34.932601 -119.670662 128 2569ft 78kts
14-Aug-19 20:50 34.937049 -119.669335 270 3100ft 80kts
14-Aug-19 20:51 34.940819 -119.697627 293 3601ft 87kts
14-Aug-19 20:52 34.952333 -119.724865 296 4050ft 97kts
14-Aug-19 20:53 34.965260 -119.751955 305 4617ft 90kts
14-Aug-19 20:54 34.975348 -119.779834 292 5091ft 90kts
14-Aug-19 20:55 34.985945 -119.807838 292 5542ft 91kts
14-Aug-19 20:56 34.995820 -119.835881 292 5984ft 89kts
14-Aug-19 20:57 35.005296 -119.863525 290 6407ft 88kts
14-Aug-19 20:58 35.017417 -119.894486 300 6482ft 114kts
14-Aug-19 20:59 35.036259 -119.927991 298 6469ft 121kts
14-Aug-19 21:00 35.051228 -119.962431 294 6384ft 102kts
14-Aug-19 21:01 35.060810 -119.992648 294 6497ft 90kts
14-Aug-19 21:02 35.070966 -120.021940 291 6498ft 93kts
14-Aug-19 21:03 35.078014 -120.052873 288 6527ft 93kts
14-Aug-19 21:04 35.089128 -120.081897 297 6543ft 101kts
14-Aug-19 21:05 35.100419 -120.117099 287 6507ft 118kts
14-Aug-19 21:06 35.110772 -120.155331 279 6508ft 123kts
14-Aug-19 21:07 35.116769 -120.196310 284 6509ft 121kts
14-Aug-19 21:08 35.128636 -120.234998 292 6495ft 122kts
14-Aug-19 21:09 35.141331 -120.273496 284 6490ft 122kts
14-Aug-19 21:10 35.149644 -120.314212 285 6422ft 125kts
14-Aug-19 21:11 35.161858 -120.352037 287 6538ft 116kts
14-Aug-19 21:12 35.172098 -120.390950 292 6491ft 123kts
14-Aug-19 21:13 35.181764 -120.430113 283 6505ft 123kts
14-Aug-19 21:14 35.187380 -120.472084 277 5919ft 142kts
14-Aug-19 21:15 35.191141 -120.521141 277 3326ft 153kts
14-Aug-19 21:16 35.199401 -120.566301 292 1488ft 122kts
14-Aug-19 21:17 35.214724 -120.600863 303 1112ft 112kts
14-Aug-19 21:18 35.229822 -120.627821 305 341ft 72kts
14-Aug-19 21:19 35.238966 -120.643928 307 217ft 23kts
14-Aug-19 21:20 35.239286 -120.642562 132 217ft 13kts
14-Aug-19 21:21 35.238381 -120.639944 26 217ft 5kts
14-Aug-19 21:22 35.238545 -120.640106 225 217ft 0kts
14-Aug-19 21:23 34.942864 -119.690279 204 2155ft 0kts
14-Aug-19 21:24 35.236855 -120.650027 89 217ft 0kts
14-Aug-19 21:25 35.238402 -120.639822 311 217ft 0kts
14-Aug-19 21:26 35.238402 -120.639822 311 217ft 0kts
14-Aug-19 21:27 35.238402 -120.639822 311 217ft 0kts
14-Aug-19 21:29 35.238402 -120.639822 311 217ft 0kts
14-Aug-19 21:30 35.238402 -120.639822 311 217ft 0kts
14-Aug-19 21:31 35.238402 -120.639822 311 217ft 0kts
14-Aug-19 21:32 35.238402 -120.639822 311 217ft 0kts
14-Aug-19 21:33 35.238402 -120.639822 311 217ft 0kts
14-Aug-19 21:34 35.238402 -120.639822 311 217ft 0kts

Navigation Log

Ident Type
Flight plan parsing failed, navigation log unavailable